Time;durP1;ratioP1;P1;durP2;ratioP2;P2;SDS_P1;SDS_P2;PMS_P1;PMS_P2;Temp;Humidity;BMP_temperature;BMP_pressure;BME280_temperature;BME280_humidity;BME280_pressure;Samples;Min_cycle;Max_cycle;Signal;HPM_P1;HPM_P2
2023/07/07 00:04:10;;;;;;;5.23;2.90;;;17.30;67.20;;;;;;20831253;28;20248;-66
2023/07/07 00:14:12;;;;;;;5.00;2.73;;;17.20;68.10;;;;;;20830454;28;20617;-60
2023/07/07 00:24:14;;;;;;;6.20;3.40;;;17.00;69.20;;;;;;20828001;28;20331;-65
2023/07/07 00:34:16;;;;;;;5.10;3.00;;;16.90;70.00;;;;;;20829980;28;20201;-65
2023/07/07 00:44:18;;;;;;;5.57;3.10;;;16.80;70.80;;;;;;20829221;28;20232;-65
2023/07/07 00:54:25;;;;;;;4.57;3.03;;;16.70;72.10;;;;;;20828706;28;20238;-66
2023/07/07 01:04:28;;;;;;;7.07;3.00;;;16.60;73.00;;;;;;20851532;28;20722;-60
2023/07/07 01:14:31;;;;;;;5.23;2.80;;;16.60;74.00;;;;;;20828489;28;20219;-66
2023/07/07 01:24:52;;;;;;;6.93;3.30;;;16.50;74.80;;;;;;20827781;28;20271;-67
2023/07/07 01:34:56;;;;;;;5.97;3.10;;;16.40;75.80;;;;;;20834826;28;20227;-62
2023/07/07 01:45:06;;;;;;;4.63;3.10;;;16.20;76.70;;;;;;20842026;28;20267;-65
2023/07/07 01:55:14;;;;;;;4.20;2.93;;;16.20;77.60;;;;;;20840986;28;20215;-60
2023/07/07 02:05:16;;;;;;;8.17;3.27;;;16.00;78.40;;;;;;20839960;28;20240;-62
2023/07/07 02:15:18;;;;;;;5.03;2.93;;;15.90;79.40;;;;;;20840137;28;20629;-66
2023/07/07 02:25:20;;;;;;;3.53;3.00;;;15.90;80.20;;;;;;20838551;28;20341;-66
2023/07/07 02:35:22;;;;;;;4.07;3.07;;;15.80;80.80;;;;;;20837831;28;20233;-66
2023/07/07 02:45:23;;;;;;;4.70;2.97;;;15.80;81.30;;;;;;20836641;28;20235;-67
2023/07/07 02:55:25;;;;;;;5.43;3.20;;;15.70;82.20;;;;;;20836468;28;20597;-64
2023/07/07 03:05:27;;;;;;;4.20;3.10;;;15.60;82.90;;;;;;20835164;28;20276;-65
2023/07/07 03:15:39;;;;;;;6.73;3.03;;;15.50;83.60;;;;;;20833759;28;20211;-66
2023/07/07 03:25:41;;;;;;;4.73;3.03;;;15.50;84.00;;;;;;20833868;28;20322;-65
2023/07/07 03:35:42;;;;;;;7.70;3.57;;;15.40;84.80;;;;;;20833081;28;20205;-64
2023/07/07 03:45:45;;;;;;;4.77;3.20;;;15.30;85.40;;;;;;20832719;28;20327;-65
2023/07/07 03:55:47;;;;;;;5.20;3.00;;;15.30;85.80;;;;;;20830864;28;20240;-64
2023/07/07 04:05:50;;;;;;;5.57;3.10;;;15.20;86.60;;;;;;20831065;28;20256;-62
2023/07/07 04:16:13;;;;;;;14.47;3.60;;;15.30;86.60;;;;;;20830906;28;20301;-65
2023/07/07 04:26:16;;;;;;;6.40;3.17;;;15.40;86.60;;;;;;20830011;28;20315;-63
2023/07/07 04:36:18;;;;;;;6.13;3.23;;;15.40;87.00;;;;;;20829544;28;20206;-61
2023/07/07 04:46:26;;;;;;;6.33;3.67;;;15.50;87.20;;;;;;20829751;28;20327;-65
2023/07/07 04:56:28;;;;;;;5.97;3.57;;;15.70;87.30;;;;;;20830923;28;20660;-66
2023/07/07 05:06:32;;;;;;;8.33;3.67;;;16.00;87.10;;;;;;20830434;28;20330;-66
2023/07/07 05:16:36;;;;;;;13.63;4.60;;;16.10;87.00;;;;;;20863072;28;20233;-66
2023/07/07 05:26:38;;;;;;;15.83;3.43;;;16.40;86.20;;;;;;20873663;28;20336;-67
2023/07/07 05:36:40;;;;;;;4.23;2.97;;;16.70;85.80;;;;;;20849030;28;20243;-67
2023/07/07 05:46:43;;;;;;;8.40;3.40;;;16.90;84.10;;;;;;20962996;28;20239;-67
2023/07/07 05:56:45;;;;;;;10.67;3.93;;;17.10;83.30;;;;;;20975543;28;20664;-65
2023/07/07 06:06:47;;;;;;;10.27;3.47;;;17.20;82.00;;;;;;20956126;28;20251;-63
2023/07/07 06:16:49;;;;;;;8.27;3.80;;;17.50;80.50;;;;;;21004540;28;20296;-67
2023/07/07 06:26:51;;;;;;;9.23;2.90;;;17.80;79.30;;;;;;21002542;28;20265;-64
2023/07/07 06:36:52;;;;;;;8.50;3.30;;;18.20;77.60;;;;;;21004131;28;20297;-63
2023/07/07 06:46:54;;;;;;;9.80;4.33;;;18.60;75.60;;;;;;21001936;28;20727;-63
2023/07/07 06:56:56;;;;;;;7.57;4.37;;;18.90;74.50;;;;;;20998611;28;20217;-62
2023/07/07 07:06:58;;;;;;;9.60;3.53;;;19.30;73.00;;;;;;20971568;28;20250;-62
2023/07/07 07:17:00;;;;;;;4.90;3.40;;;19.70;71.80;;;;;;20957597;28;20210;-64
2023/07/07 07:27:01;;;;;;;15.93;4.60;;;20.10;70.50;;;;;;20998610;28;20595;-63
2023/07/07 07:37:04;;;;;;;6.07;3.10;;;20.50;69.00;;;;;;20932732;28;20203;-65
2023/07/07 07:47:06;;;;;;;6.03;2.77;;;20.90;67.60;;;;;;20914773;28;20334;-62
2023/07/07 07:57:09;;;;;;;4.47;2.83;;;21.30;66.00;;;;;;20914067;28;20694;-65
2023/07/07 08:07:11;;;;;;;3.47;2.60;;;21.60;63.90;;;;;;20951286;28;20333;-63
2023/07/07 08:17:14;;;;;;;5.27;2.73;;;22.00;62.00;;;;;;20995888;28;20207;-63
2023/07/07 08:27:17;;;;;;;4.53;2.60;;;22.30;60.90;;;;;;20994927;28;20231;-64
2023/07/07 08:37:23;;;;;;;3.60;2.63;;;22.60;60.00;;;;;;20977494;28;20285;-64
2023/07/07 08:47:56;;;;;;;5.70;2.90;;;23.00;59.50;;;;;;21007192;28;20245;-67
2023/07/07 08:58:11;;;;;;;7.13;2.70;;;23.30;58.80;;;;;;20945738;28;20214;-66
2023/07/07 09:08:47;;;;;;;6.57;3.30;;;23.60;57.40;;;;;;20862050;28;20259;-66
2023/07/07 09:19:00;;;;;;;4.73;2.97;;;23.90;55.90;;;;;;20844219;28;20204;-60
2023/07/07 09:29:07;;;;;;;6.27;2.93;;;24.20;54.80;;;;;;20844135;28;20327;-66
2023/07/07 09:39:38;;;;;;;7.10;4.80;;;24.50;53.40;;;;;;20842381;28;20212;-66
2023/07/07 09:49:47;;;;;;;3.80;3.37;;;24.70;52.30;;;;;;20841346;28;20755;-63
2023/07/07 09:59:52;;;;;;;5.40;3.93;;;25.10;51.50;;;;;;20839753;28;20204;-62
2023/07/07 10:09:57;;;;;;;5.33;3.60;;;25.30;50.80;;;;;;20838858;28;20251;-63
2023/07/07 10:20:02;;;;;;;6.37;3.63;;;25.60;50.30;;;;;;20839524;28;20247;-63
2023/07/07 10:30:05;;;;;;;9.47;3.90;;;25.80;49.60;;;;;;20838506;28;20324;-66
2023/07/07 10:40:14;;;;;;;7.17;3.90;;;26.10;49.10;;;;;;20837718;28;20215;-68
2023/07/07 10:50:20;;;;;;;5.73;4.27;;;26.30;48.00;;;;;;20837007;28;20243;-63
2023/07/07 11:00:35;;;;;;;5.70;4.45;;;26.50;47.30;;;;;;20836198;28;20205;-65
2023/07/07 11:11:14;;;;;;;4.03;3.63;;;26.60;46.60;;;;;;20834387;28;20252;-62
2023/07/07 11:21:28;;;;;;;12.70;3.77;;;26.80;46.10;;;;;;20843189;28;20240;-65
2023/07/07 11:31:45;;;;;;;7.17;3.80;;;27.00;45.60;;;;;;20982897;28;20345;-65
2023/07/07 11:42:22;;;;;;;8.70;4.47;;;26.90;46.80;;;;;;20931995;28;20273;-67
2023/07/07 11:52:26;;;;;;;5.05;3.65;;;27.20;46.00;;;;;;20883504;28;20739;-77
2023/07/07 12:02:38;;;;;;;6.53;3.80;;;27.40;47.50;;;;;;20895850;28;20642;-79
2023/07/07 12:12:49;;;;;;;7.32;4.45;;;27.30;48.80;;;;;;20872685;28;20208;-68
2023/07/07 12:22:51;;;;;;;7.05;3.67;;;27.50;47.90;;;;;;20876333;28;20725;-63
2023/07/07 12:32:54;;;;;;;5.80;4.05;;;27.90;47.30;;;;;;20860894;28;20739;-69
2023/07/07 12:43:17;;;;;;;5.28;3.72;;;27.90;46.50;;;;;;20872553;28;20239;-63
2023/07/07 12:53:44;;;;;;;6.47;3.58;;;27.70;47.30;;;;;;20842037;28;20207;-67
2023/07/07 13:04:08;;;;;;;7.50;4.00;;;27.60;47.10;;;;;;20863832;28;20652;-66
2023/07/07 13:14:30;;;;;;;7.63;4.10;;;27.50;47.80;;;;;;20859917;28;20211;-67
2023/07/07 13:24:40;;;;;;;4.80;3.78;;;27.70;45.70;;;;;;20827427;28;20818;-69
2023/07/07 13:34:42;;;;;;;5.55;3.88;;;27.70;45.80;;;;;;20820325;28;20200;-68
2023/07/07 13:44:44;;;;;;;10.60;4.00;;;27.70;46.50;;;;;;20842350;28;20327;-63
2023/07/07 13:54:49;;;;;;;6.68;3.90;;;27.80;46.50;;;;;;20878542;28;20196;-68
2023/07/07 14:05:14;;;;;;;5.10;4.00;;;28.00;45.70;;;;;;20922690;28;20232;-69
2023/07/07 14:15:16;;;;;;;5.13;4.20;;;28.20;43.50;;;;;;20922525;28;20200;-62
2023/07/07 14:25:21;;;;;;;6.65;4.07;;;28.40;42.80;;;;;;20911087;28;20626;-70
2023/07/07 14:35:33;;;;;;;5.88;4.32;;;29.50;41.90;;;;;;20866422;28;20212;-68
2023/07/07 14:45:40;;;;;;;7.05;4.10;;;30.20;41.30;;;;;;20836135;28;20750;-67
2023/07/07 14:55:48;;;;;;;6.65;4.40;;;29.70;41.10;;;;;;20836836;28;20243;-67
2023/07/07 15:06:11;;;;;;;5.13;4.28;;;29.80;40.90;;;;;;20836002;28;20247;-63
2023/07/07 15:16:18;;;;;;;5.93;3.95;;;30.30;41.30;;;;;;20835388;28;20315;-65
2023/07/07 15:26:30;;;;;;;7.80;4.65;;;31.40;38.70;;;;;;20834339;28;20822;-64
2023/07/07 15:36:33;;;;;;;6.13;4.05;;;31.80;38.20;;;;;;20833750;28;20299;-66
2023/07/07 15:46:39;;;;;;;4.97;4.35;;;30.60;39.00;;;;;;20836194;28;20582;-72
2023/07/07 15:56:50;;;;;;;5.55;4.30;;;30.40;37.80;;;;;;20832392;28;20213;-63
2023/07/07 16:06:52;;;;;;;5.25;4.38;;;30.80;37.60;;;;;;20830089;28;20713;-67
2023/07/07 16:16:54;;;;;;;5.93;3.90;;;31.10;38.40;;;;;;20831249;28;20567;-66
2023/07/07 16:26:56;;;;;;;4.38;3.83;;;34.90;35.50;;;;;;20830086;28;20229;-69
2023/07/07 16:36:58;;;;;;;5.97;4.43;;;38.50;31.80;;;;;;20829355;28;20211;-69
2023/07/07 16:46:59;;;;;;;6.57;4.38;;;34.00;34.60;;;;;;20828428;28;20327;-72
2023/07/07 16:57:01;;;;;;;6.15;4.63;;;32.50;35.80;;;;;;20846998;28;20230;-71
2023/07/07 17:07:03;;;;;;;10.15;4.22;;;31.40;36.90;;;;;;20920390;28;20231;-70
2023/07/07 17:17:08;;;;;;;5.05;4.40;;;34.80;33.80;;;;;;20927001;28;20231;-72
2023/07/07 17:27:10;;;;;;;4.47;3.65;;;35.80;32.30;;;;;;20926730;28;20235;-62
2023/07/07 17:37:12;;;;;;;4.85;3.78;;;39.00;29.30;;;;;;20925590;28;20200;-63
2023/07/07 17:47:14;;;;;;;4.82;4.03;;;41.50;27.80;;;;;;20924752;28;20269;-64
2023/07/07 17:57:15;;;;;;;5.68;4.13;;;43.40;26.80;;;;;;20924434;28;20223;-62
2023/07/07 18:07:17;;;;;;;6.55;4.13;;;40.10;28.50;;;;;;20921328;28;20322;-68
2023/07/07 18:17:19;;;;;;;7.72;4.32;;;34.60;32.00;;;;;;20922414;28;20218;-63
2023/07/07 18:27:41;;;;;;;6.75;4.70;;;31.80;34.80;;;;;;20922721;28;20244;-71
2023/07/07 18:37:43;;;;;;;5.45;4.63;;;29.90;37.00;;;;;;20918560;28;20290;-72
2023/07/07 18:47:44;;;;;;;7.28;4.65;;;28.80;38.50;;;;;;20917485;28;20310;-69
2023/07/07 18:57:47;;;;;;;6.67;4.53;;;28.10;39.90;;;;;;20916979;28;20211;-68
2023/07/07 19:07:48;;;;;;;7.93;4.73;;;27.50;41.00;;;;;;20915596;28;20240;-71
2023/07/07 19:17:50;;;;;;;6.53;4.67;;;27.00;41.80;;;;;;20915469;28;20218;-69
2023/07/07 19:27:53;;;;;;;8.60;5.00;;;26.60;42.50;;;;;;20914643;28;20579;-65
2023/07/07 19:37:55;;;;;;;6.40;5.13;;;26.30;43.30;;;;;;20913865;28;20307;-65
2023/07/07 19:47:56;;;;;;;9.57;5.80;;;26.00;43.70;;;;;;20912860;28;20263;-62
2023/07/07 19:57:58;;;;;;;17.53;5.60;;;25.80;44.40;;;;;;20894860;28;20638;-64
2023/07/07 20:08:00;;;;;;;16.30;5.90;;;25.50;44.70;;;;;;20911702;28;20734;-63
2023/07/07 20:18:02;;;;;;;8.87;5.30;;;25.20;45.30;;;;;;20894084;28;20303;-61
2023/07/07 20:28:04;;;;;;;14.63;5.47;;;24.90;45.60;;;;;;20910755;28;20242;-67
2023/07/07 20:38:10;;;;;;;7.63;5.63;;;24.70;46.10;;;;;;20909610;28;20222;-63
2023/07/07 20:48:13;;;;;;;9.30;5.50;;;24.40;46.80;;;;;;20908569;28;20243;-60
2023/07/07 20:58:15;;;;;;;14.33;5.93;;;24.20;47.30;;;;;;20911455;28;20208;-65
2023/07/07 21:08:18;;;;;;;11.80;6.17;;;23.90;48.00;;;;;;20905615;28;20330;-72
2023/07/07 21:18:20;;;;;;;9.87;5.43;;;23.60;48.50;;;;;;20913106;28;20323;-64
2023/07/07 21:28:21;;;;;;;11.60;5.73;;;23.30;49.10;;;;;;20909665;28;20693;-67
2023/07/07 21:38:23;;;;;;;8.93;6.17;;;23.10;49.70;;;;;;20908063;28;20295;-60
2023/07/07 21:48:25;;;;;;;9.53;5.67;;;22.90;50.30;;;;;;20907920;28;21994;-59
2023/07/07 21:58:27;;;;;;;11.47;6.10;;;22.60;50.90;;;;;;20922454;28;20211;-60
2023/07/07 22:08:28;;;;;;;7.87;5.73;;;22.40;51.10;;;;;;20921534;28;20689;-61
2023/07/07 22:18:30;;;;;;;7.60;5.60;;;22.20;51.70;;;;;;20921055;28;20200;-65
2023/07/07 22:28:46;;;;;;;9.77;5.87;;;22.00;53.10;;;;;;20920649;28;20245;-63
2023/07/07 22:38:49;;;;;;;12.23;6.20;;;21.50;53.50;;;;;;20919431;28;20242;-60
2023/07/07 22:48:51;;;;;;;12.73;6.53;;;21.50;54.00;;;;;;20918878;28;20250;-60
2023/07/07 22:58:53;;;;;;;16.33;6.50;;;21.20;54.60;;;;;;20917731;28;20212;-66
2023/07/07 23:09:00;;;;;;;10.50;6.10;;;21.10;55.40;;;;;;20916403;28;20248;-61
2023/07/07 23:19:10;;;;;;;12.17;6.50;;;21.00;55.80;;;;;;20916765;28;20310;-62
2023/07/07 23:29:12;;;;;;;8.87;6.23;;;20.60;56.20;;;;;;20917094;28;20238;-66
2023/07/07 23:39:14;;;;;;;8.03;5.80;;;20.60;56.70;;;;;;20916000;28;20261;-68
2023/07/07 23:49:17;;;;;;;12.47;6.57;;;20.40;56.70;;;;;;20915647;28;20760;-67
2023/07/07 23:59:19;;;;;;;7.63;6.00;;;20.50;57.40;;;;;;20915067;28;20705;-62
